Flight Track Log - Related Links

Times and Time Zones

All times are in EDT time to prevent confusion due to time zone crossing. See the EJA831 flight status page for this flight to view local times or setup timezone preferences in your user account.

Time Position Orientation Groundspeed Altitude Reporting Facility
EDT Latitude Longitude Course Direction KTS MPH feet Rate Location/Type
02:36PM 25.8003 -80.2769 114° Southeast 167 192 1,200  Level Miami Center
02:37PM 25.7764 -80.2186 114° Southeast 217 250 5,000 3,154 Climbing Miami Center
02:37PM 25.7706 -80.2000 109° East 239 275 5,300 3,171 Climbing Miami Center
02:38PM 25.7514 -80.1303 107° East 260 299 8,700 3,300 Climbing Miami Center
02:39PM 25.7342 -80.0489 103° East 265 305 11,900 2,600 Climbing Miami Center
02:40PM 25.7133 -79.9561 104° East 286 329 13,900 1,850 Climbing Miami Center
02:41PM 25.6778 -79.8583 112° Southeast 316 364 15,600 1,700 Climbing Miami Center
02:42PM 25.6381 -79.7583 114° Southeast 338 389 17,300 1,650 Climbing Miami Center
02:43PM 25.5981 -79.6583 114° Southeast 343 395 18,900 1,600 Climbing Miami Center
02:44PM 25.5581 -79.5606 114° Southeast 343 395 20,500 1,450 Climbing Miami Center
02:45PM 25.5161 -79.4583 114° Southeast 348 400 21,800 1,350 Climbing Miami Center
02:46PM 25.4739 -79.3564 115° Southeast 353 406 23,200 1,400 Climbing Miami Center
02:47PM 25.4319 -79.2542 114° Southeast 359 413 24,600 1,400 Climbing Miami Center
02:48PM 25.3875 -79.1497 115° Southeast 364 419 26,000 1,300 Climbing Miami Center
02:49PM 25.3453 -79.0478 115° Southeast 364 419 27,200 1,100 Climbing Miami Center
02:50PM 25.2964 -78.9458 118° Southeast 364 419 28,200 1,000 Climbing Miami Center
02:51PM 25.2500 -78.8372 115° Southeast 364 419 29,200 1,000 Climbing Miami Center
02:52PM 25.1992 -78.7306 118° Southeast 374 430 30,200 1,000 Climbing Miami Center
02:53PM 25.1522 -78.6219 116° Southeast 384 442 31,200 1,000 Climbing Miami Center
02:54PM 25.1014 -78.5133 117° Southeast 391 450 32,200 1,000 Climbing Miami Center
02:55PM 25.0525 -78.4028 116° Southeast 391 450 33,200 1,050 Climbing Miami Center
02:56PM 25.0033 -78.2919 116° Southeast 391 450 34,300 1,050 Climbing Miami Center
02:57PM 24.9500 -78.1836 118° Southeast 391 450 35,300 1,100 Climbing Miami Center
02:58PM 24.8903 -78.0775 122° Southeast 401 461 36,500 1,200 Climbing Miami Center
02:59PM 24.8306 -77.9739 122° Southeast 407 468 37,700 958 Climbing Miami Center
03:00PM 24.7808 -77.8911 123° Southeast 407 468 38,400 650 Climbing Miami Center
03:01PM 24.7044 -77.7625 123° Southeast 413 475 39,000 298 Climbing Miami Center
03:02PM 24.6383 -77.6453 122° Southeast 423 487 39,000  Level Miami Center
03:03PM 24.5697 -77.5306 123° Southeast 443 510 39,000  Level Miami Center
03:04PM 24.4972 -77.4069 123° Southeast 462 532 39,000  Level Miami Center
03:05PM 24.4286 -77.2856 122° Southeast 467 537 39,000  Level Miami Center
03:06PM 24.3578 -77.1600 122° Southeast 472 543 39,000  Level Miami Center
03:07PM 24.2850 -77.0389 123° Southeast 472 543 39,000  Level Miami Center
03:08PM 24.2119 -76.9181 124° Southeast 477 549 39,000  Level Miami Center
03:09PM 24.1408 -76.7975 123° Southeast 477 549 39,000  Level Miami Center
03:10PM 24.0717 -76.6767 122° Southeast 471 542 39,000  Level Miami Center
03:11PM 23.9983 -76.5542 123° Southeast 476 548 39,000  Level Miami Center
03:12PM 23.9250 -76.4314 123° Southeast 481 554 39,000  Level Miami Center
03:13PM 23.8533 -76.3114 123° Southeast 481 554 39,000  Level Miami Center
03:14PM 23.7819 -76.1914 123° Southeast 476 548 39,000  Level Miami Center
03:15PM 23.7103 -76.0714 123° Southeast 476 548 39,000  Level Miami Center
03:16PM 23.6386 -75.9517 123° Southeast 476 548 39,000  Level Miami Center
03:17PM 23.5708 -75.8342 122° Southeast 471 542 39,000  Level Miami Center
03:18PM 23.4992 -75.7261 126° Southeast 471 542 39,000  Level Miami Center
03:19PM 23.4292 -75.6000 121° Southeast 483 556 39,000  Level Miami Center
03:20PM 23.3569 -75.4875 125° Southeast 477 549 39,000  Level Miami Center
03:21PM 23.2869 -75.3728 124° Southeast 467 537 39,000  Level Miami Center
03:22PM 23.2169 -75.2606 124° Southeast 460 529 39,000  Level Miami Center
03:23PM 23.1489 -75.1486 123° Southeast 455 524 39,000  Level Miami Center
03:24PM 23.0786 -75.0364 124° Southeast 455 524 39,000 -700 Level Miami Center
03:25PM 23.0122 -74.9247 123° Southeast 450 518 37,600 -1,500 Descending Miami Center
03:26PM 22.9397 -74.8083 124° Southeast 450 518 36,000 -1,600 Descending Miami Center
03:27PM 22.8692 -74.6944 124° Southeast 455 524 34,400 -1,500 Descending Miami Center
03:28PM 22.7986 -74.5786 123° Southeast 461 531 33,000 -700 Descending Miami Center
03:29PM 22.7278 -74.4650 124° Southeast 461 531 33,000  Level Miami Center
03:30PM 22.6550 -74.3561 126° Southeast 461 531 33,000  Level Miami Center
03:31PM 22.5864 -74.2406 123° Southeast 461 531 33,000 -1,008 Level Miami Center
03:32PM 22.5133 -74.1250 124° Southeast 461 531 30,800 -2,318 Descending Miami Center
03:33PM 22.4272 -73.9897 125° Southeast 461 531 27,900 -2,628 Descending Miami Center
03:34PM 22.3625 -73.8811 123° Southeast 456 525 25,500 -2,350 Descending Miami Center
03:35PM 22.2933 -73.7728 125° Southeast 451 519 23,200 -2,200 Descending Miami Center
03:36PM 22.2244 -73.6689 126° Southeast 440 506 21,100 -2,150 Descending Miami Center
03:37PM 22.1700 -73.5650 119° Southeast 415 478 18,900 -2,100 Descending Miami Center
03:38PM 22.1053 -73.4725 127° Southeast 402 463 16,900 -2,000 Descending Miami Center
03:39PM 22.0489 -73.3775 123° Southeast 389 448 14,900 -2,000 Descending Miami Center
03:40PM 21.9883 -73.2897 127° Southeast 378 435 12,900 -1,900 Descending Miami Center
03:41PM 21.9281 -73.2042 127° Southeast 364 419 11,100 -1,750 Descending Miami Center
03:42PM 21.8864 -73.1247 119° Southeast 338 389 9,400 -1,600 Descending Miami Center
03:43PM 21.8408 -73.0544 125° Southeast 309 356 7,900 -1,500 Descending Miami Center
03:44PM 21.8222 -72.9789 105° East 284 327 6,400 -1,500 Descending Miami Center
03:46PM 21.8061 -72.8492 98° East  Level FlightAware Approximate
03:53PM 21.7667 -72.2667 90° East  Level FlightAware Approximate
03:54PM 21.7736 -72.2659 90° East  Level Estimated
03:55PM 21.7667 -72.2667 90° East  Level FlightAware Approximate
03:56PM 21.7736 -72.2659 90° East  Level Estimated
03:57PM 21.7667 -72.2667 90° East  Level FlightAware Approximate
03:58PM 21.7736 -72.2659 90° East  Level Estimated
03:59PM 21.7667 -72.2667 90° East  Level FlightAware Approximate
04:00PM 21.7736 -72.2659 90° East  Level Estimated
04:01PM 21.7667 -72.2667 90° East  Level FlightAware Approximate
04:02PM 21.7736 -72.2659 90° East  Level Estimated
04:03PM 21.7667 -72.2667 90° East  Level FlightAware Approximate
04:04PM 21.7736 -72.2659 90° East  Level Estimated
04:05PM 21.7667 -72.2667 90° East  Level FlightAware Approximate
04:06PM 21.7736 -72.2659 90° East  Level Estimated

Login

Don't have an account? Register now (free) for customized features, flight alerts, and more!